createdAt,value
2023-01-10T00:01:53.126Z,0.63
2023-01-10T00:03:54.668Z,0.95
2023-01-10T00:05:56.184Z,1.05
2023-01-10T00:08:02.123Z,1.25
2023-01-10T00:10:09.882Z,0.95
2023-01-10T00:12:33.011Z,0.90
2023-01-10T00:14:35.288Z,0.90
2023-01-10T00:16:40.672Z,0.90
2023-01-10T00:18:42.141Z,0.63
2023-01-10T00:20:47.116Z,1.17
2023-01-10T00:22:50.759Z,0.95
2023-01-10T00:24:55.065Z,0.90
2023-01-10T00:29:00.941Z,1.60
2023-01-10T00:31:06.446Z,1.30
2023-01-10T00:33:08.815Z,1.00
2023-01-10T00:35:13.386Z,1.45
2023-01-10T00:37:14.893Z,2.05
2023-01-10T00:39:19.109Z,1.00
2023-01-10T00:41:41.949Z,0.80
2023-01-10T00:43:58.581Z,0.82
2023-01-10T00:46:04.926Z,0.65
2023-01-10T00:48:10.358Z,0.60
2023-01-10T00:50:20.048Z,1.50
2023-01-10T00:52:22.115Z,0.68
2023-01-10T00:54:26.738Z,1.05
2023-01-10T00:56:31.379Z,0.90
2023-01-10T00:58:35.793Z,0.70
2023-01-10T01:02:48.516Z,0.70
2023-01-10T01:04:50.104Z,0.60
2023-01-10T01:06:54.231Z,0.95
2023-01-10T01:11:05.792Z,0.90
2023-01-10T01:13:12.894Z,0.60
2023-01-10T01:15:17.281Z,0.63
2023-01-10T01:17:19.094Z,0.73
2023-01-10T01:19:23.629Z,0.50
2023-01-10T01:21:28.447Z,0.68
2023-01-10T01:23:30.527Z,0.82
2023-01-10T01:25:37.957Z,0.70
2023-01-10T01:27:42.387Z,1.00
2023-01-10T01:29:49.963Z,1.00
2023-01-10T01:31:53.993Z,0.70
2023-01-10T01:33:55.779Z,1.00
2023-01-10T01:36:03.232Z,1.13
2023-01-10T01:38:07.769Z,1.48
2023-01-10T01:40:12.745Z,1.00
2023-01-10T01:42:21.057Z,0.93
2023-01-10T01:44:23.049Z,0.52
2023-01-10T01:46:28.146Z,0.52
2023-01-10T01:48:32.384Z,0.60
2023-01-10T01:50:33.869Z,1.25
2023-01-10T01:52:37.279Z,0.55
2023-01-10T01:54:38.884Z,0.55
2023-01-10T01:56:42.909Z,0.50
2023-01-10T01:58:56.603Z,0.85
2023-01-10T02:00:58.700Z,0.80
2023-01-10T02:03:03.093Z,0.90
2023-01-10T02:05:14.663Z,0.60
2023-01-10T02:07:19.601Z,0.40
2023-01-10T02:09:33.383Z,0.40
2023-01-10T02:11:34.854Z,0.50
2023-01-10T02:13:39.945Z,0.40
2023-01-10T02:15:44.424Z,0.40
2023-01-10T02:17:49.980Z,0.20
2023-01-10T02:19:53.656Z,0.40
2023-01-10T02:22:07.364Z,0.20
2023-01-10T02:24:21.120Z,0.40
2023-01-10T02:26:26.937Z,0.30
2023-01-10T02:28:31.303Z,0.40
2023-01-10T02:30:44.903Z,0.50
2023-01-10T02:33:04.488Z,0.30
2023-01-10T02:35:14.524Z,0.40
2023-01-10T02:37:19.315Z,0.32
2023-01-10T02:39:34.741Z,0.40
2023-01-10T02:41:48.219Z,0.40
2023-01-10T02:44:13.003Z,0.40
2023-01-10T02:46:24.979Z,0.65
2023-01-10T02:48:26.557Z,1.00
2023-01-10T02:50:36.642Z,0.70
2023-01-10T02:52:41.034Z,0.90
2023-01-10T02:57:05.123Z,0.60
2023-01-10T02:59:12.207Z,0.63
2023-01-10T03:01:19.915Z,0.98
2023-01-10T03:03:47.533Z,0.77
2023-01-10T03:05:51.989Z,0.47
2023-01-10T03:08:01.315Z,0.45
2023-01-10T03:10:18.948Z,0.50
2023-01-10T03:12:37.755Z,0.30
2023-01-10T03:14:43.450Z,0.60
2023-01-10T03:16:51.092Z,0.30
2023-01-10T03:18:58.358Z,0.20
2023-01-10T03:21:08.079Z,0.10
2023-01-10T03:23:13.944Z,0.10
2023-01-10T03:25:17.331Z,0.10
2023-01-10T03:27:24.984Z,0.10
2023-01-10T03:29:31.538Z,0.20
2023-01-10T03:31:47.600Z,0.22
2023-01-10T03:33:49.233Z,0.20
2023-01-10T03:35:57.616Z,0.20
2023-01-10T03:38:06.766Z,0.10
2023-01-10T03:40:14.604Z,0.10
2023-01-10T03:42:27.865Z,0.30
2023-01-10T03:44:44.299Z,0.20
2023-01-10T03:46:51.856Z,0.20
2023-01-10T03:48:54.739Z,0.10
2023-01-10T03:51:00.275Z,0.20
2023-01-10T03:53:05.898Z,0.20
2023-01-10T03:55:21.010Z,0.10
2023-01-10T03:59:48.500Z,0.20
2023-01-10T04:02:05.361Z,0.22
2023-01-10T04:04:17.658Z,0.20
2023-01-10T04:06:26.754Z,0.10
2023-01-10T04:08:38.481Z,0.20
2023-01-10T04:10:53.648Z,0.47
2023-01-10T04:13:11.585Z,0.10
2023-01-10T04:15:29.128Z,0.20
2023-01-10T04:17:39.460Z,0.28
2023-01-10T04:19:57.001Z,0.25
2023-01-10T04:22:07.028Z,0.35
2023-01-10T04:24:17.430Z,0.35
2023-01-10T04:26:26.362Z,0.35
2023-01-10T04:28:33.747Z,0.20
2023-01-10T04:30:35.204Z,0.50
2023-01-10T04:32:39.656Z,0.20
2023-01-10T04:34:47.030Z,0.30
2023-01-10T04:36:50.588Z,0.63
2023-01-10T04:38:54.829Z,0.55
2023-01-10T04:43:00.541Z,0.98
2023-01-10T04:45:05.290Z,0.73
2023-01-10T04:47:07.124Z,2.15
2023-01-10T04:49:14.311Z,1.15
2023-01-10T04:51:15.833Z,0.80
2023-01-10T04:53:23.131Z,1.20
2023-01-10T04:55:30.228Z,1.58
2023-01-10T04:59:38.683Z,2.38
2023-01-10T05:01:43.108Z,2.03
2023-01-10T05:03:48.942Z,1.42
2023-01-10T05:05:53.210Z,1.77
2023-01-10T05:09:58.915Z,2.03
2023-01-10T05:12:03.139Z,1.77
2023-01-10T05:14:07.875Z,1.65
2023-01-10T05:16:09.445Z,2.03
2023-01-10T05:18:10.981Z,1.45
2023-01-10T05:20:13.579Z,2.00
2023-01-10T05:22:15.485Z,2.00
2023-01-10T05:24:17.034Z,2.90
2023-01-10T05:26:19.786Z,1.50
2023-01-10T05:28:21.387Z,2.28
2023-01-10T05:32:30.188Z,1.85
2023-01-10T05:34:37.552Z,2.30
2023-01-10T05:36:39.318Z,3.22
2023-01-10T05:38:46.876Z,1.80
2023-01-10T05:40:48.402Z,2.47
2023-01-10T05:42:49.913Z,2.28
2023-01-10T05:44:54.454Z,4.38
2023-01-10T05:47:01.797Z,3.00
2023-01-10T05:49:03.387Z,2.80
2023-01-10T05:51:10.909Z,3.38
2023-01-10T05:53:12.507Z,2.75
2023-01-10T05:55:14.007Z,2.88
2023-01-10T05:57:15.532Z,2.85
2023-01-10T05:59:27.495Z,4.82
2023-01-10T06:01:29.487Z,3.38
2023-01-10T06:03:33.915Z,3.50
2023-01-10T06:05:41.546Z,3.63
2023-01-10T06:09:51.559Z,2.87
2023-01-10T06:11:58.882Z,3.15
2023-01-10T06:14:07.805Z,2.33
2023-01-10T06:16:15.035Z,2.25
2023-01-10T06:18:22.678Z,2.53
2023-01-10T06:20:30.191Z,2.35
2023-01-10T06:22:31.728Z,2.28
2023-01-10T06:24:33.276Z,2.30
2023-01-10T06:26:34.938Z,2.63
2023-01-10T06:28:36.392Z,2.67
2023-01-10T06:30:43.970Z,2.53
2023-01-10T06:32:51.529Z,3.20
2023-01-10T06:37:02.938Z,3.53
2023-01-10T06:39:10.198Z,3.03
2023-01-10T06:41:14.603Z,3.03
2023-01-10T06:43:22.151Z,2.72
2023-01-10T06:45:23.697Z,3.17
2023-01-10T06:49:35.185Z,3.67
2023-01-10T06:51:42.555Z,2.65
2023-01-10T06:53:49.972Z,3.65
2023-01-10T06:55:51.487Z,4.07
2023-01-10T07:00:04.255Z,3.15
2023-01-10T07:02:13.768Z,3.63
2023-01-10T07:04:17.574Z,3.10
2023-01-10T07:06:23.450Z,4.07
2023-01-10T07:08:27.198Z,2.88
2023-01-10T07:10:32.992Z,3.00
2023-01-10T07:12:36.764Z,2.90
2023-01-10T07:14:40.377Z,1.55
2023-01-10T07:16:50.230Z,2.33
2023-01-10T07:18:54.197Z,1.67
2023-01-10T07:20:58.168Z,1.35
2023-01-10T07:23:07.844Z,1.90
2023-01-10T07:25:12.330Z,1.50
2023-01-10T07:27:19.250Z,1.38
2023-01-10T07:29:21.229Z,1.75
2023-01-10T07:31:28.636Z,1.00
2023-01-10T07:33:30.365Z,1.00
2023-01-10T07:35:32.104Z,1.45
2023-01-10T07:37:39.583Z,1.33
2023-01-10T07:39:46.865Z,1.00
2023-01-10T07:41:52.817Z,0.90
2023-01-10T07:43:54.310Z,1.33
2023-01-10T07:45:58.560Z,0.73
2023-01-10T07:48:03.926Z,0.90
2023-01-10T07:50:05.736Z,0.68
2023-01-10T07:52:09.109Z,2.00
2023-01-10T07:54:10.727Z,0.85
2023-01-10T07:56:13.139Z,0.90
2023-01-10T07:58:17.513Z,0.73
2023-01-10T08:00:19.522Z,0.90
2023-01-10T08:02:23.922Z,1.33
2023-01-10T08:04:31.265Z,0.50
2023-01-10T08:06:35.787Z,0.70
2023-01-10T08:10:46.957Z,1.17
2023-01-10T08:12:49.750Z,0.68
2023-01-10T08:14:51.692Z,1.40
2023-01-10T08:16:56.159Z,0.73
2023-01-10T08:19:00.815Z,1.40
2023-01-10T08:21:02.327Z,0.70
2023-01-10T08:23:04.000Z,0.60
2023-01-10T08:25:08.481Z,0.88
2023-01-10T08:27:10.547Z,0.90
2023-01-10T08:29:16.108Z,0.50
2023-01-10T08:31:17.817Z,0.60
2023-01-10T08:33:19.366Z,0.77
2023-01-10T08:35:20.993Z,0.57
2023-01-10T08:37:22.426Z,0.95
2023-01-10T08:39:26.507Z,0.73
2023-01-10T08:41:28.075Z,0.82
2023-01-10T08:43:29.648Z,0.40
2023-01-10T08:45:31.363Z,0.88
2023-01-10T08:47:35.681Z,0.60
2023-01-10T08:49:40.227Z,0.70
2023-01-10T08:53:46.334Z,0.60
2023-01-10T08:55:48.854Z,0.38
2023-01-10T08:57:50.340Z,0.47
2023-01-10T09:01:59.897Z,0.40
2023-01-10T09:04:01.461Z,0.50
2023-01-10T09:06:03.050Z,0.40
2023-01-10T09:08:04.760Z,0.82
2023-01-10T09:10:09.649Z,0.55
2023-01-10T09:12:29.767Z,0.50
2023-01-10T09:14:34.040Z,0.70
2023-01-10T09:16:35.517Z,0.88
2023-01-10T09:18:37.127Z,0.82
2023-01-10T09:20:45.599Z,0.70
2023-01-10T09:22:47.059Z,1.20
2023-01-10T09:26:52.785Z,0.88
2023-01-10T09:28:57.071Z,0.90
2023-01-10T09:30:58.622Z,1.25
2023-01-10T09:33:00.279Z,0.82
2023-01-10T09:35:01.916Z,0.50
2023-01-10T09:37:03.406Z,1.00
2023-01-10T09:39:05.052Z,0.50
2023-01-10T09:43:13.152Z,1.13
2023-01-10T09:45:20.161Z,1.15
2023-01-10T09:47:40.212Z,1.33
2023-01-10T09:49:47.454Z,0.73
2023-01-10T09:51:58.898Z,1.00
2023-01-10T09:54:12.073Z,1.10
2023-01-10T09:56:15.865Z,2.22
2023-01-10T09:58:20.403Z,1.83
2023-01-10T10:00:40.093Z,1.58
2023-01-10T10:02:47.250Z,1.30
2023-01-10T10:05:06.112Z,2.00
2023-01-10T10:07:22.095Z,2.05
2023-01-10T10:09:37.327Z,1.40
2023-01-10T10:11:51.939Z,1.42
2023-01-10T10:14:06.138Z,1.33
2023-01-10T10:16:27.247Z,1.25
2023-01-10T10:18:53.833Z,1.98
2023-01-10T10:21:21.284Z,1.73
2023-01-10T10:23:47.978Z,2.03
2023-01-10T10:26:09.542Z,2.60
2023-01-10T10:28:53.617Z,2.47
2023-01-10T10:31:19.919Z,2.80
2023-01-10T10:33:48.935Z,3.72
2023-01-10T10:36:12.535Z,2.72
2023-01-10T10:38:25.914Z,3.72
2023-01-10T10:40:31.832Z,3.47
2023-01-10T10:42:43.905Z,5.47
2023-01-10T10:44:59.118Z,3.92
2023-01-10T10:47:16.928Z,3.08
2023-01-10T10:49:34.021Z,3.17
2023-01-10T10:51:42.901Z,4.85
2023-01-10T10:53:50.984Z,3.35
2023-01-10T10:55:59.278Z,3.92
2023-01-10T10:58:07.733Z,4.97
2023-01-10T11:00:19.947Z,3.75
2023-01-10T11:02:29.269Z,4.53
2023-01-10T11:04:37.149Z,4.18
2023-01-10T11:06:44.859Z,5.95
2023-01-10T11:08:52.461Z,4.75
2023-01-10T11:13:20.082Z,5.60
2023-01-10T11:15:36.666Z,5.28
2023-01-10T11:17:44.062Z,5.40
2023-01-10T11:20:13.999Z,8.23
2023-01-10T11:22:21.525Z,7.97
2023-01-10T11:25:04.563Z,8.60
2023-01-10T11:29:16.186Z,7.63
2023-01-10T11:31:26.113Z,7.07
2023-01-10T11:33:37.363Z,8.85
2023-01-10T11:35:41.560Z,7.38
2023-01-10T11:37:43.303Z,5.80
2023-01-10T11:40:07.397Z,6.45
2023-01-10T11:42:24.349Z,8.38
2023-01-10T11:44:31.959Z,8.07
2023-01-10T11:46:42.956Z,9.40
2023-01-10T11:49:06.857Z,5.72
2023-01-10T11:51:23.418Z,7.38
2023-01-10T11:53:36.635Z,6.72
2023-01-10T11:55:38.793Z,6.28
2023-01-10T11:57:40.545Z,7.43
2023-01-10T11:59:55.996Z,7.20
2023-01-10T12:02:00.345Z,7.10
2023-01-10T12:04:02.065Z,10.80
2023-01-10T12:06:08.691Z,9.93
2023-01-10T12:08:22.856Z,8.27
2023-01-10T12:10:26.003Z,8.75
2023-01-10T12:12:35.104Z,8.23
2023-01-10T12:14:39.601Z,7.80
2023-01-10T12:16:41.210Z,7.32
2023-01-10T12:18:43.016Z,7.47
2023-01-10T12:20:49.927Z,5.97
2023-01-10T12:22:59.877Z,7.47
2023-01-10T12:25:09.193Z,9.18
2023-01-10T12:27:15.298Z,7.93
2023-01-10T12:29:27.933Z,9.80
2023-01-10T12:31:37.451Z,7.30
2023-01-10T12:33:51.618Z,7.60
2023-01-10T12:36:02.345Z,6.82
2023-01-10T12:38:48.707Z,8.02
2023-01-10T12:40:53.586Z,7.63
2023-01-10T12:43:24.660Z,8.45
2023-01-10T12:45:28.260Z,8.48
2023-01-10T12:47:32.418Z,8.57
2023-01-10T12:51:35.872Z,9.98
2023-01-10T12:53:43.765Z,8.38
2023-01-10T12:55:45.647Z,8.85
2023-01-10T12:57:50.957Z,9.43
2023-01-10T12:59:54.139Z,9.73
2023-01-10T13:02:01.697Z,8.88
2023-01-10T13:04:08.907Z,8.98
2023-01-10T13:06:21.130Z,10.30
2023-01-10T13:08:27.757Z,8.25
2023-01-10T13:10:32.171Z,8.60
2023-01-10T13:12:51.360Z,9.52
2023-01-10T13:14:57.418Z,8.70
2023-01-10T13:17:18.459Z,9.80
2023-01-10T13:19:28.337Z,6.82
2023-01-10T13:21:32.846Z,7.03
2023-01-10T13:23:48.261Z,5.60
2023-01-10T13:25:59.064Z,6.57
2023-01-10T13:28:07.827Z,8.63
2023-01-10T13:30:29.908Z,7.72
2023-01-10T13:32:52.339Z,7.97
2023-01-10T13:35:15.064Z,8.80
2023-01-10T13:37:22.869Z,7.80
2023-01-10T13:39:28.928Z,6.28
2023-01-10T13:42:13.680Z,7.78
2023-01-10T13:44:17.276Z,8.53
2023-01-10T13:46:19.885Z,8.35
2023-01-10T13:48:26.069Z,6.63
2023-01-10T13:50:34.163Z,7.57
2023-01-10T13:52:35.866Z,7.68
2023-01-10T13:54:37.457Z,8.55
2023-01-10T13:56:39.700Z,8.82
2023-01-10T13:59:02.613Z,8.35
2023-01-10T14:01:23.007Z,8.30
2023-01-10T14:03:43.103Z,7.80
2023-01-10T14:05:50.990Z,6.55
2023-01-10T14:07:57.954Z,7.30
2023-01-10T14:10:04.689Z,6.75
2023-01-10T14:12:18.411Z,9.07
2023-01-10T14:14:34.189Z,10.23
2023-01-10T14:18:44.875Z,7.22
2023-01-10T14:21:05.688Z,5.78
2023-01-10T14:23:16.030Z,8.02
2023-01-10T14:25:25.904Z,7.88
2023-01-10T14:27:46.920Z,7.80
2023-01-10T14:29:56.525Z,9.30
2023-01-10T14:32:08.743Z,7.90
2023-01-10T14:34:27.127Z,8.50
2023-01-10T14:36:38.567Z,9.20
2023-01-10T14:38:40.628Z,9.00
2023-01-10T14:40:43.581Z,8.75
2023-01-10T14:42:47.361Z,9.20
2023-01-10T14:44:53.699Z,7.82
2023-01-10T14:46:56.370Z,9.45
2023-01-10T14:49:01.165Z,7.22
2023-01-10T14:51:21.234Z,9.95
2023-01-10T14:53:30.194Z,9.10
2023-01-10T14:55:42.336Z,9.13
2023-01-10T14:58:00.114Z,9.85
2023-01-10T15:00:05.005Z,10.45
2023-01-10T15:02:22.089Z,7.63
2023-01-10T15:04:26.162Z,9.32
2023-01-10T15:06:29.886Z,7.93
2023-01-10T15:08:32.060Z,9.65
2023-01-10T15:10:42.116Z,9.85
2023-01-10T15:12:51.770Z,8.98
2023-01-10T15:15:06.775Z,9.23
2023-01-10T15:17:13.017Z,7.82
2023-01-10T15:19:21.975Z,8.18
2023-01-10T15:21:24.586Z,7.18
2023-01-10T15:23:36.348Z,9.02
2023-01-10T15:25:54.966Z,10.32
2023-01-10T15:27:57.591Z,6.78
2023-01-10T15:29:59.596Z,7.93
2023-01-10T15:32:08.609Z,6.82
2023-01-10T15:34:20.024Z,8.25
2023-01-10T15:36:26.367Z,6.97
2023-01-10T15:38:30.355Z,6.20
2023-01-10T15:40:37.139Z,7.05
2023-01-10T15:42:38.739Z,5.82
2023-01-10T15:44:40.764Z,6.75
2023-01-10T15:46:57.322Z,9.40
2023-01-10T15:49:01.532Z,6.60
2023-01-10T15:51:12.184Z,7.25
2023-01-10T15:53:16.400Z,7.47
2023-01-10T15:55:41.446Z,8.18
2023-01-10T15:57:51.276Z,7.57
2023-01-10T15:59:53.357Z,6.80
2023-01-10T16:01:57.159Z,8.55
2023-01-10T16:04:00.766Z,8.77
2023-01-10T16:06:04.592Z,7.22
2023-01-10T16:08:09.620Z,8.02
2023-01-10T16:10:25.349Z,7.65
2023-01-10T16:12:51.033Z,4.80
2023-01-10T16:14:52.595Z,6.32
2023-01-10T16:17:42.015Z,7.65
2023-01-10T16:19:48.285Z,6.50
2023-01-10T16:21:58.704Z,6.97
2023-01-10T16:24:10.907Z,6.70
2023-01-10T16:26:19.292Z,10.75
2023-01-10T16:28:23.647Z,9.00
2023-01-10T16:30:33.329Z,11.95
2023-01-10T16:32:35.511Z,12.52
2023-01-10T16:34:38.530Z,9.93
2023-01-10T16:36:42.092Z,8.52
2023-01-10T16:38:48.599Z,8.48
2023-01-10T16:41:21.674Z,8.27
2023-01-10T16:43:27.437Z,6.28
2023-01-10T16:45:30.220Z,6.47
2023-01-10T16:47:39.011Z,5.25
2023-01-10T16:49:42.768Z,6.35
2023-01-10T16:51:50.890Z,5.75
2023-01-10T16:53:58.539Z,6.15
2023-01-10T16:56:00.106Z,5.85
2023-01-10T16:58:01.686Z,6.25
2023-01-10T17:00:06.460Z,5.85
2023-01-10T17:02:15.314Z,5.40
2023-01-10T17:04:22.015Z,5.05
2023-01-10T17:06:26.154Z,5.03
2023-01-10T17:08:27.669Z,4.75
2023-01-10T17:12:37.670Z,6.05
2023-01-10T17:14:42.083Z,6.65
2023-01-10T17:16:43.918Z,5.65
2023-01-10T17:18:45.669Z,4.53
2023-01-10T17:20:48.836Z,5.35
2023-01-10T17:22:53.253Z,6.55
2023-01-10T17:26:58.870Z,6.10
2023-01-10T17:29:00.541Z,7.28
2023-01-10T17:31:03.160Z,6.15
2023-01-10T17:33:13.558Z,6.53
2023-01-10T17:35:15.072Z,8.07
2023-01-10T17:37:22.478Z,7.00
2023-01-10T17:39:26.984Z,7.60
2023-01-10T17:41:31.408Z,7.35
2023-01-10T17:43:33.058Z,7.25
2023-01-10T17:45:34.754Z,8.32
2023-01-10T17:47:36.294Z,7.43
2023-01-10T17:49:37.800Z,5.80
2023-01-10T17:51:39.269Z,7.82
2023-01-10T17:53:40.869Z,6.32
2023-01-10T17:55:46.109Z,7.03
2023-01-10T17:57:47.622Z,7.38
2023-01-10T17:59:49.090Z,6.35
2023-01-10T18:01:53.257Z,6.88
2023-01-10T18:03:57.662Z,7.28
2023-01-10T18:08:07.160Z,6.25
2023-01-10T18:10:11.321Z,6.75
2023-01-10T18:12:12.853Z,6.00
2023-01-10T18:14:36.147Z,5.72
2023-01-10T18:16:40.390Z,6.70
2023-01-10T18:18:47.912Z,5.55
2023-01-10T18:20:58.024Z,6.03
2023-01-10T18:23:21.052Z,6.28
2023-01-10T18:25:25.527Z,6.07
2023-01-10T18:27:29.769Z,7.10
2023-01-10T18:29:31.297Z,7.63
2023-01-10T18:31:33.042Z,6.40
2023-01-10T18:33:34.565Z,8.70
2023-01-10T18:35:41.943Z,6.80
2023-01-10T18:37:49.422Z,8.05
2023-01-10T18:39:50.964Z,8.02
2023-01-10T18:41:52.460Z,8.50
2023-01-10T18:43:53.923Z,8.10
2023-01-10T18:46:02.448Z,8.00
2023-01-10T18:48:07.071Z,6.60
2023-01-10T18:50:08.813Z,7.00
2023-01-10T18:52:10.354Z,5.68
2023-01-10T18:54:11.939Z,5.75
2023-01-10T18:58:26.014Z,5.97
2023-01-10T19:00:30.432Z,5.75
2023-01-10T19:02:38.001Z,4.75
2023-01-10T19:06:49.610Z,5.38
2023-01-10T19:08:54.487Z,5.00
2023-01-10T19:11:12.507Z,4.50
2023-01-10T19:13:21.626Z,4.78
2023-01-10T19:15:29.768Z,4.00
2023-01-10T19:17:33.912Z,4.07
2023-01-10T19:19:39.619Z,6.03
2023-01-10T19:21:51.301Z,3.97
2023-01-10T19:23:55.957Z,3.85
2023-01-10T19:26:01.920Z,3.67
2023-01-10T19:28:03.904Z,3.88
2023-01-10T19:30:12.639Z,3.92
2023-01-10T19:32:18.283Z,3.35
2023-01-10T19:34:23.014Z,4.00
2023-01-10T19:36:38.484Z,3.42
2023-01-10T19:38:40.836Z,2.88
2023-01-10T19:40:50.777Z,3.47
2023-01-10T19:42:55.277Z,3.38
2023-01-10T19:45:04.406Z,2.90
2023-01-10T19:47:13.428Z,3.85
2023-01-10T19:49:21.291Z,3.03
2023-01-10T19:51:27.092Z,2.72
2023-01-10T19:53:28.761Z,3.55
2023-01-10T19:55:30.436Z,2.50
2023-01-10T19:57:32.551Z,3.03
2023-01-10T19:59:37.065Z,3.50
2023-01-10T20:01:38.915Z,2.40
2023-01-10T20:03:46.685Z,2.10
2023-01-10T20:05:51.251Z,2.25
2023-01-10T20:07:55.659Z,3.55
2023-01-10T20:09:57.260Z,2.15
2023-01-10T20:12:01.449Z,2.40
2023-01-10T20:14:12.761Z,3.00
2023-01-10T20:16:15.364Z,2.20
2023-01-10T20:18:16.846Z,1.98
2023-01-10T20:22:25.980Z,2.58
2023-01-10T20:24:27.506Z,3.28
2023-01-10T20:26:31.876Z,2.53
2023-01-10T20:28:33.961Z,2.70
2023-01-10T20:30:36.713Z,2.78
2023-01-10T20:32:38.258Z,2.60
2023-01-10T20:34:39.845Z,3.22
2023-01-10T20:36:41.561Z,5.15
2023-01-10T20:38:46.103Z,3.47
2023-01-10T20:40:57.720Z,3.95
2023-01-10T20:42:59.216Z,3.85
2023-01-10T20:47:05.103Z,2.72
2023-01-10T20:49:07.271Z,2.60
2023-01-10T20:51:11.631Z,3.58
2023-01-10T20:53:16.057Z,3.35
2023-01-10T20:57:24.804Z,3.65
2023-01-10T20:59:29.419Z,3.42
2023-01-10T21:01:35.449Z,4.15
2023-01-10T21:03:37.483Z,2.90
2023-01-10T21:05:39.223Z,4.35
2023-01-10T21:07:40.762Z,3.22
2023-01-10T21:09:42.339Z,3.65
2023-01-10T21:11:59.405Z,3.65
2023-01-10T21:14:05.306Z,3.40
2023-01-10T21:16:12.229Z,3.67
2023-01-10T21:18:14.694Z,3.67
2023-01-10T21:20:19.745Z,4.05
2023-01-10T21:22:24.093Z,2.35
2023-01-10T21:24:25.794Z,2.92
2023-01-10T21:26:27.352Z,3.30
2023-01-10T21:30:38.039Z,3.15
2023-01-10T21:32:39.538Z,2.80
2023-01-10T21:34:41.087Z,3.65
2023-01-10T21:36:42.941Z,3.35
2023-01-10T21:38:45.095Z,2.78
2023-01-10T21:40:46.900Z,3.28
2023-01-10T21:42:48.448Z,2.92
2023-01-10T21:44:53.042Z,2.25
2023-01-10T21:46:54.940Z,2.15
2023-01-10T21:49:00.562Z,2.42
2023-01-10T21:51:07.839Z,1.40
2023-01-10T21:53:12.239Z,2.53
2023-01-10T21:55:14.535Z,1.75
2023-01-10T21:57:23.430Z,2.20
2023-01-10T21:59:25.640Z,1.80
2023-01-10T22:01:34.841Z,1.27
2023-01-10T22:03:36.495Z,1.75
2023-01-10T22:05:37.985Z,1.90
2023-01-10T22:07:39.468Z,1.77
2023-01-10T22:09:43.945Z,2.13
2023-01-10T22:11:45.425Z,1.58
2023-01-10T22:13:47.769Z,1.23
2023-01-10T22:15:49.372Z,0.80
2023-01-10T22:17:58.140Z,0.90
2023-01-10T22:19:59.732Z,1.48
2023-01-10T22:24:05.518Z,1.15
2023-01-10T22:26:18.117Z,0.90
2023-01-10T22:28:22.517Z,0.75
2023-01-10T22:30:25.173Z,0.60
2023-01-10T22:32:33.199Z,0.60
2023-01-10T22:34:34.721Z,0.70
2023-01-10T22:36:36.338Z,0.30
2023-01-10T22:38:38.356Z,0.60
2023-01-10T22:40:45.783Z,0.40
2023-01-10T22:42:52.226Z,0.43
2023-01-10T22:44:59.605Z,0.47
2023-01-10T22:47:01.079Z,0.60
2023-01-10T22:49:02.733Z,0.68
2023-01-10T22:51:05.672Z,0.40
2023-01-10T22:53:13.476Z,0.47
2023-01-10T22:55:21.009Z,0.50
2023-01-10T22:57:22.727Z,0.75
2023-01-10T22:59:27.392Z,0.73
2023-01-10T23:01:28.994Z,0.80
2023-01-10T23:03:33.993Z,0.95
2023-01-10T23:05:38.433Z,0.93
2023-01-10T23:07:43.121Z,0.85
2023-01-10T23:09:44.651Z,0.50
2023-01-10T23:11:52.261Z,0.73
2023-01-10T23:13:56.792Z,0.50
2023-01-10T23:16:08.988Z,0.73
2023-01-10T23:18:10.615Z,0.60
2023-01-10T23:20:12.290Z,0.75
2023-01-10T23:22:13.722Z,1.05
2023-01-10T23:24:21.374Z,1.05
2023-01-10T23:26:22.935Z,0.80
2023-01-10T23:28:37.452Z,0.75
2023-01-10T23:30:39.118Z,0.43
2023-01-10T23:32:40.655Z,0.57
2023-01-10T23:34:47.812Z,0.73
2023-01-10T23:36:58.158Z,0.50
2023-01-10T23:39:02.252Z,1.13
2023-01-10T23:41:09.463Z,0.50
2023-01-10T23:43:10.955Z,0.68
2023-01-10T23:45:18.557Z,0.80
2023-01-10T23:49:24.049Z,0.50
2023-01-10T23:51:28.187Z,0.75
2023-01-10T23:53:29.718Z,1.10
2023-01-10T23:55:36.979Z,1.20
2023-01-10T23:57:38.489Z,1.23
2023-01-10T23:59:40.019Z,0.35
